Aviation Digital Data Service (ADDS)

Output produced by METARs form (1910 UTC 25 June 2017)
found at http://www.aviationweather.gov/adds/metars/
 
HUEN 251900Z 15005KT 9999 FEW020 FEW022CB 22/18 Q1018.2 30.06 886.7 26.18
TAF HUEN 251700Z 2518/2624 15006KT 9999 FEW021 FEW023CB 
     BECMG 2521/2524 33005KT FEW019 FEW021CB SCT120 
     TEMPO 2601/2606 VRB12KT 9000 -TS SCT018 FEW020CB SCT110 
     BECMG 2607/2612 17012KT 9000 -TSRA BKN022 FEW024CB BKN180 FM 261700 22006KT 9999 FEW024 FEW026CB 
     BECMG 2621/2624 35005KT FEW021 FEW023CB SCT160
       
TAF HUSO 251700Z 2518/2618 36003KT CAVOK FM 260000 08004KT 
     BECMG 2609/2614 25004KT 9999 -TSRA BKN020 FEW022CB BKN110 FM 261700 30005KT 9000 TSRA SCT019 FEW021CB BKN100